Time;durP1;ratioP1;P1;durP2;ratioP2;P2;SDS_P1;SDS_P2;PMS_P1;PMS_P2;Temp;Humidity;BMP_temperature;BMP_pressure;BME280_temperature;BME280_humidity;BME280_pressure;Samples;Min_cycle;Max_cycle;Signal;HPM_P1;HPM_P2
2021/06/08 00:02:22;;;;;;;8.53;4.05;;;;;;;17.20;65.09;100121.36;1798157;78;21077;-64
2021/06/08 00:04:48;;;;;;;6.42;3.80;;;;;;;17.11;65.23;100115.22;1800696;78;21425;-64
2021/06/08 00:07:15;;;;;;;7.15;3.85;;;;;;;17.00;65.49;100109.79;1764529;79;21050;-64
2021/06/08 00:09:41;;;;;;;6.20;3.83;;;;;;;16.98;65.68;100108.29;1798106;78;21049;-64
2021/06/08 00:12:08;;;;;;;6.70;4.20;;;;;;;17.00;65.69;100103.66;1785804;79;21068;-64
2021/06/08 00:14:35;;;;;;;6.78;4.80;;;;;;;17.06;65.64;100110.92;1803101;78;21054;-64
2021/06/08 00:17:01;;;;;;;9.90;4.35;;;;;;;17.08;65.56;100110.27;1755645;79;21049;-64
2021/06/08 00:19:28;;;;;;;7.08;4.53;;;;;;;17.04;65.58;100112.93;1808734;78;21818;-64
2021/06/08 00:21:55;;;;;;;7.30;4.20;;;;;;;16.98;65.78;100110.95;1784696;78;21093;-64
2021/06/08 00:24:21;;;;;;;5.65;3.85;;;;;;;16.90;65.80;100108.66;1779832;78;21050;-64
2021/06/08 00:26:48;;;;;;;7.25;4.78;;;;;;;16.85;66.06;100107.52;1773205;78;21058;-65
2021/06/08 00:29:14;;;;;;;8.05;4.62;;;;;;;16.77;66.19;100101.68;1766374;78;21045;-64
2021/06/08 00:31:40;;;;;;;6.30;3.83;;;;;;;16.74;66.37;100114.48;1799261;78;21480;-65
2021/06/08 00:34:07;;;;;;;6.70;3.42;;;;;;;16.75;66.28;100103.69;1799776;78;21033;-65
2021/06/08 00:36:33;;;;;;;5.83;3.67;;;;;;;16.77;66.33;100104.34;1792957;78;21011;-66
2021/06/08 00:39:00;;;;;;;6.80;3.90;;;;;;;16.75;66.51;100105.02;1797387;78;20995;-65
2021/06/08 00:41:38;;;;;;;6.05;4.15;;;;;;;16.70;66.72;100106.02;1797391;78;21116;-64
2021/06/08 00:44:15;;;;;;;6.65;4.20;;;;;;;16.65;66.95;100109.69;1749279;78;21070;-64
2021/06/08 00:46:41;;;;;;;7.22;4.40;;;;;;;16.62;67.04;100106.86;1766054;79;21046;-65
2021/06/08 00:49:08;;;;;;;9.35;4.83;;;;;;;16.58;67.10;100106.06;1790794;78;20998;-65
2021/06/08 00:51:35;;;;;;;7.85;4.20;;;;;;;16.55;67.04;100107.21;1799606;78;21085;-65
2021/06/08 00:54:11;;;;;;;6.12;4.50;;;;;;;16.57;67.00;100116.34;1770926;79;21548;-65
2021/06/08 00:56:42;;;;;;;7.12;4.65;;;;;;;16.58;67.05;100116.69;1791185;78;21498;-65
2021/06/08 00:59:09;;;;;;;6.58;4.25;;;;;;;16.57;67.10;100113.17;1789016;78;21073;-65
2021/06/08 01:01:35;;;;;;;7.00;4.50;;;;;;;16.59;67.27;100111.17;1788723;78;21050;-65
2021/06/08 01:04:04;;;;;;;6.78;4.92;;;;;;;16.64;67.23;100112.86;1796493;78;21072;-65
2021/06/08 01:06:35;;;;;;;7.62;4.35;;;;;;;16.65;67.19;100115.00;1793309;78;21032;-65
2021/06/08 01:09:03;;;;;;;6.53;4.25;;;;;;;16.65;67.28;100122.97;1801592;78;22038;-65
2021/06/08 01:11:30;;;;;;;8.10;4.90;;;;;;;16.68;67.31;100116.00;1795335;79;21095;-65
2021/06/08 01:13:56;;;;;;;6.95;4.00;;;;;;;16.77;67.07;100120.28;1787830;78;21037;-65
2021/06/08 01:16:23;;;;;;;7.83;4.25;;;;;;;16.82;66.82;100121.92;1766777;79;21100;-65
2021/06/08 01:18:50;;;;;;;6.75;4.58;;;;;;;16.80;66.82;100119.95;1788254;79;20998;-65
2021/06/08 01:21:17;;;;;;;7.08;4.35;;;;;;;16.79;66.81;100108.98;1769143;79;21130;-65
2021/06/08 01:23:43;;;;;;;6.58;4.50;;;;;;;16.77;66.92;100114.14;1768062;78;21708;-65
2021/06/08 01:26:10;;;;;;;6.42;4.65;;;;;;;16.72;67.01;100114.65;1789118;78;20998;-65
2021/06/08 01:28:37;;;;;;;7.97;4.60;;;;;;;16.66;67.25;100116.64;1793353;78;20999;-65
2021/06/08 01:31:10;;;;;;;8.15;5.00;;;;;;;16.61;67.37;100120.30;1794366;78;21073;-65
2021/06/08 01:33:40;;;;;;;9.53;4.75;;;;;;;16.57;67.48;100123.80;1767471;78;21062;-65
2021/06/08 01:36:08;;;;;;;7.90;4.05;;;;;;;16.62;67.34;100123.30;1783209;79;21038;-65
2021/06/08 01:38:36;;;;;;;6.35;4.60;;;;;;;16.62;67.28;100120.14;1814503;78;21031;-65
2021/06/08 01:41:03;;;;;;;6.30;4.30;;;;;;;16.64;67.25;100131.45;1783919;78;21007;-65
2021/06/08 01:43:30;;;;;;;7.55;4.60;;;;;;;16.62;67.30;100129.95;1747838;80;21088;-65
2021/06/08 01:45:56;;;;;;;6.92;4.47;;;;;;;16.57;67.45;100128.30;1775998;78;21655;-65
2021/06/08 01:48:23;;;;;;;8.05;4.80;;;;;;;16.50;67.55;100130.79;1802937;78;21141;-65
2021/06/08 01:50:50;;;;;;;7.08;4.28;;;;;;;16.45;67.72;100131.79;1810953;78;21035;-65
2021/06/08 01:53:42;;;;;;;7.00;4.50;;;;;;;16.42;67.77;100124.16;1812262;78;21085;-65
2021/06/08 01:56:12;;;;;;;6.67;4.60;;;;;;;16.42;67.82;100124.97;1813868;78;21089;-65
2021/06/08 01:59:09;;;;;;;6.65;4.10;;;;;;;16.44;67.97;100124.33;1788569;79;21042;-64
2021/06/08 02:01:51;;;;;;;;;;;;;;;16.43;68.11;100127.97;1742808;80;21060;-64
2021/06/08 02:04:29;;;;;;;6.70;4.40;;;;;;;16.32;68.37;100130.95;1773287;79;20188;-65
2021/06/08 02:07:13;;;;;;;7.83;4.75;;;;;;;16.16;68.71;100127.82;1766141;80;21613;-65
2021/06/08 02:10:09;;;;;;;7.30;4.70;;;;;;;16.07;68.93;100134.10;1756994;79;21583;-64
2021/06/08 02:12:36;;;;;;;7.55;4.47;;;;;;;16.00;69.17;100134.44;1773387;79;21802;-65
2021/06/08 02:15:08;;;;;;;6.85;4.62;;;;;;;15.97;69.44;100137.76;1827245;77;20986;-65
2021/06/08 02:17:50;;;;;;;10.03;4.78;;;;;;;16.00;69.39;100139.74;1829052;77;21089;-65
2021/06/08 02:20:29;;;;;;;11.10;5.28;;;;;;;16.01;69.41;100136.92;1827341;78;21065;-65
2021/06/08 02:23:05;;;;;;;9.18;5.50;;;;;;;16.00;69.50;100135.77;1795590;78;21457;-64
2021/06/08 02:25:32;;;;;;;6.92;4.72;;;;;;;15.96;69.76;100145.37;1822048;77;21794;-64
2021/06/08 02:28:00;;;;;;;7.92;5.17;;;;;;;15.95;69.86;100152.16;1826670;77;21477;-64
2021/06/08 02:30:27;;;;;;;9.88;5.15;;;;;;;15.93;69.87;100148.85;1803610;77;21038;-64
2021/06/08 02:32:54;;;;;;;7.00;5.12;;;;;;;15.96;69.83;100155.16;1790250;78;21533;-64
2021/06/08 02:35:22;;;;;;;6.97;4.60;;;;;;;16.05;69.69;100154.67;1792389;78;21051;-65
2021/06/08 02:37:49;;;;;;;8.05;5.28;;;;;;;16.14;69.50;100155.03;1801701;78;21033;-64
2021/06/08 02:40:16;;;;;;;7.28;5.12;;;;;;;16.19;69.43;100162.48;1796590;78;21049;-64
2021/06/08 02:42:43;;;;;;;7.97;5.67;;;;;;;16.19;69.46;100159.34;1811719;77;20979;-64
2021/06/08 02:45:10;;;;;;;7.40;5.50;;;;;;;16.20;69.55;100157.01;1818609;78;21311;-64
2021/06/08 02:47:37;;;;;;;8.15;5.22;;;;;;;16.16;69.64;100150.38;1784359;79;21112;-64
2021/06/08 02:50:05;;;;;;;7.05;4.72;;;;;;;16.18;69.73;100160.84;1826360;78;21961;-65
2021/06/08 02:52:32;;;;;;;7.90;4.75;;;;;;;16.23;69.63;100165.16;1794960;78;21071;-64
2021/06/08 02:54:59;;;;;;;10.50;5.60;;;;;;;16.25;69.61;100165.30;1791491;79;22302;-64
2021/06/08 02:57:26;;;;;;;7.92;5.17;;;;;;;16.29;69.64;100167.13;1818002;77;21458;-64
2021/06/08 02:59:59;;;;;;;7.35;4.83;;;;;;;16.32;69.60;100166.80;1790790;78;21116;-64
2021/06/08 03:02:22;;;;;;;7.10;5.15;;;;;;;16.30;69.58;100174.93;1804498;78;21774;-64
2021/06/08 03:04:52;;;;;;;8.78;5.72;;;;;;;16.29;69.63;100169.78;1791684;77;21105;-64
2021/06/08 03:07:19;;;;;;;7.75;5.87;;;;;;;16.30;69.69;100170.13;1778026;78;21062;-64
2021/06/08 03:09:50;;;;;;;8.05;5.60;;;;;;;16.40;69.57;100178.75;1793903;78;21093;-62
2021/06/08 03:12:18;;;;;;;7.62;5.22;;;;;;;16.50;69.10;100175.94;1822827;78;20945;-59
2021/06/08 03:14:46;;;;;;;7.28;4.97;;;;;;;16.56;68.88;100178.41;1802178;78;21051;-61
2021/06/08 03:17:14;;;;;;;8.65;6.15;;;;;;;16.58;68.78;100177.27;1822496;78;21019;-62
2021/06/08 03:19:42;;;;;;;11.75;5.30;;;;;;;16.60;68.95;100174.45;1821694;77;21057;-59
2021/06/08 03:22:13;;;;;;;9.05;5.55;;;;;;;16.64;69.06;100166.45;1760802;79;21050;-60
2021/06/08 03:24:40;;;;;;;7.53;5.72;;;;;;;16.70;69.06;100168.45;1811091;77;21037;-59
2021/06/08 03:27:07;;;;;;;7.47;5.95;;;;;;;16.78;68.83;100168.92;1795235;78;21106;-60
2021/06/08 03:29:33;;;;;;;10.85;5.60;;;;;;;16.82;68.67;100171.09;1825563;77;21002;-61
2021/06/08 03:32:00;;;;;;;10.98;6.37;;;;;;;16.88;68.63;100177.09;1799734;78;21052;-60
2021/06/08 03:34:26;;;;;;;8.23;5.85;;;;;;;16.98;68.47;100173.41;1800119;78;21018;-60
2021/06/08 03:36:53;;;;;;;9.95;6.17;;;;;;;17.03;68.33;100172.39;1799303;78;21096;-61
2021/06/08 03:39:21;;;;;;;7.87;6.45;;;;;;;17.09;68.22;100178.38;1824159;78;21035;-60
2021/06/08 03:41:48;;;;;;;7.75;5.60;;;;;;;17.11;68.13;100177.70;1817075;77;20975;-63
2021/06/08 03:44:16;;;;;;;8.53;5.72;;;;;;;17.11;68.19;100175.03;1767582;79;21242;-64
2021/06/08 03:46:45;;;;;;;8.70;5.97;;;;;;;17.13;68.18;100174.39;1800916;78;21502;-63
2021/06/08 03:49:13;;;;;;;10.32;6.45;;;;;;;17.20;68.09;100183.84;1807789;78;21045;-63
2021/06/08 03:51:40;;;;;;;9.48;5.78;;;;;;;17.31;67.84;100170.66;1788638;78;21117;-63
2021/06/08 03:54:06;;;;;;;10.63;6.47;;;;;;;17.42;67.62;100172.95;1823135;77;21053;-63
2021/06/08 03:56:32;;;;;;;7.47;5.67;;;;;;;17.48;67.35;100181.55;1798099;77;21093;-61
2021/06/08 03:58:59;;;;;;;8.48;6.15;;;;;;;17.49;67.33;100178.41;1823027;78;21558;-62
2021/06/08 04:01:27;;;;;;;8.38;6.55;;;;;;;17.46;67.33;100176.41;1821749;77;21704;-63
2021/06/08 04:03:54;;;;;;;8.48;6.03;;;;;;;17.45;67.38;100170.78;1824550;77;21063;-62
2021/06/08 04:06:20;;;;;;;8.43;5.62;;;;;;;17.53;67.37;100175.72;1801496;78;21422;-61
2021/06/08 04:08:47;;;;;;;7.70;6.10;;;;;;;17.60;67.29;100172.69;1828986;77;21101;-62
2021/06/08 04:11:18;;;;;;;12.37;6.35;;;;;;;17.62;67.38;100177.36;1819388;77;21148;-63
2021/06/08 04:13:45;;;;;;;9.18;6.62;;;;;;;17.64;67.66;100174.83;1808261;77;21082;-64
2021/06/08 04:16:12;;;;;;;9.05;6.53;;;;;;;17.66;67.46;100180.50;1819336;77;21194;-64
2021/06/08 04:18:39;;;;;;;10.82;6.75;;;;;;;17.67;67.54;100186.13;1794679;78;21571;-63
2021/06/08 04:21:06;;;;;;;7.45;6.50;;;;;;;17.74;67.67;100183.94;1822520;77;21084;-63
2021/06/08 04:23:32;;;;;;;8.88;7.08;;;;;;;17.88;67.25;100186.89;1819777;77;21018;-64
2021/06/08 04:25:59;;;;;;;8.03;5.83;;;;;;;17.92;67.14;100183.70;1795177;78;21109;-65
2021/06/08 04:28:26;;;;;;;10.30;6.03;;;;;;;17.98;66.95;100178.17;1760878;79;21097;-63
2021/06/08 04:30:55;;;;;;;14.03;9.03;;;;;;;18.02;66.97;100182.13;1815962;77;21766;-63
2021/06/08 04:33:23;;;;;;;12.05;10.70;;;;;;;18.08;66.98;100184.09;1818508;77;21109;-64
2021/06/08 04:35:50;;;;;;;9.60;8.05;;;;;;;18.15;66.86;100184.22;1816289;77;21101;-63
2021/06/08 04:38:17;;;;;;;12.47;8.33;;;;;;;18.23;66.69;100184.16;1790447;78;21066;-64
2021/06/08 04:40:44;;;;;;;13.40;9.55;;;;;;;18.34;66.34;100183.75;1815609;77;21096;-65
2021/06/08 04:43:11;;;;;;;12.90;9.50;;;;;;;18.44;66.17;100179.52;1783208;79;21049;-62
2021/06/08 04:45:37;;;;;;;12.37;8.88;;;;;;;18.52;65.69;100187.92;1791964;78;21091;-63
2021/06/08 04:48:04;;;;;;;8.70;7.42;;;;;;;18.55;65.50;100190.23;1780794;78;21070;-62
2021/06/08 04:50:31;;;;;;;9.43;7.20;;;;;;;18.57;65.33;100183.70;1797100;78;21053;-64
2021/06/08 04:53:03;;;;;;;11.03;6.85;;;;;;;18.63;65.30;100198.16;1770885;79;21140;-59
2021/06/08 04:55:30;;;;;;;12.80;9.13;;;;;;;18.72;65.23;100192.25;1800713;78;21474;-61
2021/06/08 04:57:57;;;;;;;10.05;7.53;;;;;;;18.78;65.05;100185.36;1794192;78;21081;-61
2021/06/08 05:00:28;;;;;;;8.93;6.83;;;;;;;18.81;65.12;100189.00;1799609;79;21578;-62
2021/06/08 05:03:01;;;;;;;9.23;6.12;;;;;;;18.87;65.18;100193.65;1771500;79;21337;-61
2021/06/08 05:05:29;;;;;;;9.05;6.33;;;;;;;18.94;64.89;100190.05;1791047;78;21779;-62
2021/06/08 05:08:25;;;;;;;9.58;6.97;;;;;;;19.06;64.62;100186.45;1799659;78;21630;-62
2021/06/08 05:11:03;;;;;;;11.43;8.30;;;;;;;19.20;64.14;100185.28;1810480;77;21042;-60
2021/06/08 05:13:30;;;;;;;9.53;7.40;;;;;;;19.30;63.60;100188.53;1812735;78;22256;-63
2021/06/08 05:15:57;;;;;;;9.30;6.37;;;;;;;19.36;63.16;100187.77;1781973;78;21117;-63
2021/06/08 05:18:24;;;;;;;10.18;7.50;;;;;;;19.37;63.25;100184.10;1752991;80;21773;-63
2021/06/08 05:20:50;;;;;;;8.38;6.20;;;;;;;19.39;63.24;100190.59;1815039;78;21018;-64
2021/06/08 05:23:16;;;;;;;7.80;5.37;;;;;;;19.47;63.61;100189.97;1810194;78;21576;-63
2021/06/08 05:25:44;;;;;;;9.93;6.85;;;;;;;19.60;63.45;100191.14;1780985;77;21057;-63
2021/06/08 05:28:13;;;;;;;6.83;5.72;;;;;;;19.74;62.83;100186.81;1775678;78;21552;-61
2021/06/08 05:30:42;;;;;;;9.68;5.37;;;;;;;19.83;62.18;100195.87;1746336;80;21054;-63
2021/06/08 05:33:11;;;;;;;7.70;5.65;;;;;;;19.90;61.87;100192.45;1783804;78;21026;-63
2021/06/08 05:35:38;;;;;;;7.42;5.42;;;;;;;19.92;61.71;100187.26;1781260;78;20911;-62
2021/06/08 05:38:07;;;;;;;7.42;5.42;;;;;;;19.94;61.66;100184.38;1816667;78;20991;-63
2021/06/08 05:40:41;;;;;;;11.78;5.47;;;;;;;19.94;61.44;100182.55;1782375;78;21446;-63
2021/06/08 05:43:04;;;;;;;9.48;5.45;;;;;;;20.00;61.15;100175.61;1791686;78;21064;-60
2021/06/08 05:45:31;;;;;;;9.00;5.83;;;;;;;20.11;60.94;100183.13;1794581;78;21062;-65
2021/06/08 05:47:58;;;;;;;6.85;5.28;;;;;;;20.17;60.40;100185.54;1782237;79;21576;-66
2021/06/08 05:50:24;;;;;;;9.18;4.78;;;;;;;20.20;60.43;100177.97;1780154;78;21429;-66
2021/06/08 05:52:53;;;;;;;6.58;4.58;;;;;;;20.23;60.49;100182.94;1785672;79;21069;-65
2021/06/08 05:55:23;;;;;;;6.67;4.40;;;;;;;20.28;59.23;100177.02;1785517;79;21529;-68
2021/06/08 05:57:53;;;;;;;9.48;5.17;;;;;;;20.34;59.36;100176.75;1783371;78;21121;-67
2021/06/08 06:00:23;;;;;;;7.95;5.50;;;;;;;20.39;59.99;100178.34;1755264;79;21068;-66
2021/06/08 06:02:50;;;;;;;8.43;5.03;;;;;;;20.47;60.22;100181.41;1778097;78;21328;-65
2021/06/08 06:05:17;;;;;;;7.35;4.90;;;;;;;20.55;59.45;100177.26;1781370;78;21060;-61
2021/06/08 06:07:44;;;;;;;10.35;6.30;;;;;;;20.58;59.21;100180.37;1782123;78;21101;-66
2021/06/08 06:10:11;;;;;;;9.00;5.30;;;;;;;20.58;58.58;100183.56;1786278;79;21069;-67
2021/06/08 06:12:39;;;;;;;7.70;5.60;;;;;;;20.52;59.05;100179.80;1791149;78;21007;-66
2021/06/08 06:15:09;;;;;;;8.15;4.80;;;;;;;20.51;58.97;100180.83;1764653;79;21076;-67
2021/06/08 06:17:38;;;;;;;7.75;4.35;;;;;;;20.55;59.51;100182.09;1747534;79;21069;-68
2021/06/08 06:20:11;;;;;;;6.15;4.30;;;;;;;20.63;59.26;100178.98;1745996;80;21836;-62
2021/06/08 06:22:38;;;;;;;7.35;4.95;;;;;;;20.69;58.12;100180.89;1748847;80;21111;-68
2021/06/08 06:25:08;;;;;;;7.12;4.60;;;;;;;20.73;58.42;100181.65;1767939;80;21097;-65
2021/06/08 06:27:41;;;;;;;6.28;4.03;;;;;;;20.76;58.38;100179.08;1782808;78;21020;-65
2021/06/08 06:30:10;;;;;;;6.37;3.30;;;;;;;20.84;57.99;100168.77;1740898;80;21133;-65
2021/06/08 06:32:37;;;;;;;5.83;3.12;;;;;;;20.97;57.27;100168.33;1741162;79;21121;-70
2021/06/08 06:35:05;;;;;;;6.78;3.35;;;;;;;21.04;56.80;100167.55;1765255;79;21059;-68
2021/06/08 06:37:31;;;;;;;5.72;3.20;;;;;;;21.05;56.47;100167.88;1740823;79;21118;-68
2021/06/08 06:39:58;;;;;;;5.83;3.37;;;;;;;21.06;56.20;100164.98;1765168;79;21093;-65
2021/06/08 06:42:28;;;;;;;7.55;3.27;;;;;;;21.11;56.21;100165.73;1769111;79;21613;-66
2021/06/08 06:44:55;;;;;;;5.80;3.20;;;;;;;21.15;55.81;100164.33;1742989;79;22522;-68
2021/06/08 06:47:21;;;;;;;4.83;3.22;;;;;;;21.19;55.70;100167.44;1761518;78;21141;-68
2021/06/08 06:49:47;;;;;;;6.08;3.45;;;;;;;21.22;54.89;100166.52;1787713;78;21113;-69
2021/06/08 06:52:14;;;;;;;7.53;3.50;;;;;;;21.24;55.46;100168.48;1770992;79;21437;-66
2021/06/08 06:54:41;;;;;;;6.87;3.72;;;;;;;21.25;55.45;100165.28;1771637;79;21071;-65
2021/06/08 06:57:07;;;;;;;5.22;3.12;;;;;;;21.26;55.16;100165.09;1752047;78;21576;-71
2021/06/08 06:59:33;;;;;;;6.37;3.52;;;;;;;21.28;55.33;100168.41;1781432;79;21131;-67
2021/06/08 07:02:00;;;;;;;5.58;3.67;;;;;;;21.31;55.12;100169.33;1778166;78;21086;-68
2021/06/08 07:04:26;;;;;;;5.90;3.45;;;;;;;21.36;54.66;100169.27;1784370;79;21598;-67
2021/06/08 07:06:52;;;;;;;5.10;2.98;;;;;;;21.37;54.91;100169.06;1781885;79;21089;-68
2021/06/08 07:09:24;;;;;;;5.42;3.35;;;;;;;21.41;54.56;100172.17;1779676;79;21968;-67
2021/06/08 07:11:52;;;;;;;5.62;2.85;;;;;;;21.45;53.71;100160.02;1752546;80;21462;-67
2021/06/08 07:14:20;;;;;;;5.70;3.05;;;;;;;21.47;53.75;100163.38;1788569;78;21081;-68
2021/06/08 07:16:48;;;;;;;6.65;3.67;;;;;;;21.52;53.56;100159.59;1763923;79;21123;-73
2021/06/08 07:19:15;;;;;;;6.90;2.80;;;;;;;21.56;52.59;100164.03;1798168;78;21060;-70
2021/06/08 07:21:43;;;;;;;4.80;2.98;;;;;;;21.58;52.01;100161.45;1787885;78;21711;-69
2021/06/08 07:24:10;;;;;;;5.40;3.33;;;;;;;21.62;52.37;100165.88;1797534;78;21316;-71
2021/06/08 07:26:38;;;;;;;5.92;3.15;;;;;;;21.64;52.46;100164.67;1797369;78;21080;-74
2021/06/08 07:29:08;;;;;;;6.22;3.42;;;;;;;21.68;52.46;100160.55;1792901;78;21033;-75
2021/06/08 07:31:55;;;;;;;6.15;3.62;;;;;;;21.71;52.12;100162.83;1791574;78;21058;-73
2021/06/08 07:35:04;;;;;;;8.20;3.02;;;;;;;21.75;51.94;100167.27;1791015;78;21097;-67
2021/06/08 07:37:33;;;;;;;5.70;3.40;;;;;;;21.80;52.18;100169.34;1761066;79;21603;-67
2021/06/08 07:40:09;;;;;;;8.53;3.27;;;;;;;21.84;52.03;100163.92;1765008;78;21125;-67
2021/06/08 07:42:52;;;;;;;6.65;3.15;;;;;;;21.89;52.25;100170.83;1764143;78;21747;-64
2021/06/08 07:45:38;;;;;;;4.40;2.47;;;;;;;21.95;51.95;100169.19;1787986;78;21072;-66
2021/06/08 07:48:08;;;;;;;4.78;2.62;;;;;;;22.02;51.45;100161.48;1792972;78;21795;-69
2021/06/08 07:50:37;;;;;;;4.65;3.10;;;;;;;22.09;51.00;100162.83;1786157;78;21061;-70
2021/06/08 07:53:03;;;;;;;5.30;2.80;;;;;;;22.16;51.07;100162.84;1787890;78;21469;-67
2021/06/08 07:55:30;;;;;;;8.60;2.92;;;;;;;22.20;50.75;100163.55;1812451;77;21125;-66
2021/06/08 07:57:56;;;;;;;5.95;2.75;;;;;;;22.25;51.19;100165.09;1787201;77;21569;-66
2021/06/08 08:00:23;;;;;;;4.45;2.00;;;;;;;22.31;50.90;100152.78;1814740;77;21471;-66
2021/06/08 08:02:54;;;;;;;5.70;2.65;;;;;;;22.40;48.94;100160.91;1816257;77;21045;-70
2021/06/08 08:05:22;;;;;;;6.22;2.80;;;;;;;22.47;49.57;100159.58;1783820;78;21128;-68
2021/06/08 08:07:50;;;;;;;4.58;2.27;;;;;;;22.55;49.02;100162.58;1815015;77;21124;-74
2021/06/08 08:10:18;;;;;;;4.00;1.47;;;;;;;22.63;49.24;100162.37;1762147;78;21077;-65
2021/06/08 08:12:45;;;;;;;4.60;2.30;;;;;;;22.63;48.85;100159.16;1762535;78;21101;-68
2021/06/08 08:15:12;;;;;;;6.22;2.60;;;;;;;22.71;48.22;100160.81;1733589;78;21097;-66
2021/06/08 08:17:39;;;;;;;4.78;2.35;;;;;;;22.80;48.34;100162.23;1783103;78;21120;-67
2021/06/08 08:20:09;;;;;;;5.08;2.55;;;;;;;22.87;47.72;100155.52;1751717;80;21549;-78
2021/06/08 08:22:35;;;;;;;4.30;2.25;;;;;;;22.94;47.16;100146.93;1777298;78;21053;-74
2021/06/08 08:25:03;;;;;;;5.80;2.98;;;;;;;23.02;47.87;100154.47;1748684;80;21089;-74
2021/06/08 08:27:30;;;;;;;5.28;2.70;;;;;;;23.05;47.85;100155.36;1750670;80;21100;-68
2021/06/08 08:29:56;;;;;;;5.90;3.02;;;;;;;23.06;48.00;100152.50;1760365;79;21065;-67
2021/06/08 08:32:23;;;;;;;7.17;2.95;;;;;;;23.03;48.11;100156.91;1761069;79;21061;-67
2021/06/08 08:34:50;;;;;;;5.40;2.58;;;;;;;23.09;48.50;100164.16;1729069;81;21591;-72
2021/06/08 08:37:16;;;;;;;5.28;3.10;;;;;;;23.15;48.08;100158.49;1732720;79;21068;-67
2021/06/08 08:39:43;;;;;;;5.42;2.52;;;;;;;23.19;47.67;100151.65;1758967;80;21094;-68
2021/06/08 08:42:10;;;;;;;5.90;3.00;;;;;;;23.21;47.78;100156.81;1757831;79;21435;-67
2021/06/08 08:44:36;;;;;;;5.12;2.67;;;;;;;23.22;47.34;100151.23;1765205;79;21093;-64
2021/06/08 08:47:03;;;;;;;5.00;2.42;;;;;;;23.23;45.82;100149.36;1779103;79;21109;-66
2021/06/08 08:49:30;;;;;;;4.22;2.35;;;;;;;23.21;46.28;100146.89;1739306;80;21112;-64
2021/06/08 08:51:56;;;;;;;7.10;2.77;;;;;;;23.19;46.28;100148.97;1758470;79;21104;-69
2021/06/08 08:54:24;;;;;;;5.40;2.90;;;;;;;23.15;46.41;100145.07;1767181;79;21150;-65
2021/06/08 08:56:50;;;;;;;4.67;2.37;;;;;;;23.16;46.48;100146.17;1739343;80;21057;-70
2021/06/08 08:59:17;;;;;;;4.60;2.67;;;;;;;23.19;46.05;100143.59;1763557;80;21120;-71
2021/06/08 09:01:47;;;;;;;6.40;2.20;;;;;;;23.25;46.58;100145.94;1742723;80;21113;-75
2021/06/08 09:04:14;;;;;;;4.72;2.42;;;;;;;23.29;45.21;100141.29;1768314;79;21604;-70
2021/06/08 09:06:41;;;;;;;4.50;2.30;;;;;;;23.29;45.61;100145.84;1740952;79;21096;-70
2021/06/08 09:09:09;;;;;;;5.30;2.10;;;;;;;23.26;45.80;100139.02;1761102;79;21656;-68
2021/06/08 09:11:40;;;;;;;5.78;2.85;;;;;;;23.27;46.74;100142.55;1763726;79;21137;-77
2021/06/08 09:14:08;;;;;;;8.65;2.22;;;;;;;23.37;47.37;100138.89;1748537;78;21231;-66
2021/06/08 09:16:35;;;;;;;5.70;2.37;;;;;;;23.48;45.92;100131.48;1796317;78;21096;-66
2021/06/08 09:19:08;;;;;;;5.10;2.37;;;;;;;23.63;45.83;100135.77;1796104;78;21068;-70
2021/06/08 09:21:38;;;;;;;4.45;2.22;;;;;;;23.71;45.77;100140.37;1815058;77;21078;-72
2021/06/08 09:24:24;;;;;;;4.40;2.30;;;;;;;23.80;46.36;100138.77;1770225;79;21622;-62
2021/06/08 09:27:07;;;;;;;5.85;2.40;;;;;;;23.83;45.01;100140.53;1794845;78;21135;-67
2021/06/08 09:29:44;;;;;;;5.37;2.12;;;;;;;23.87;45.12;100136.39;1792244;78;21128;-69
2021/06/08 09:32:26;;;;;;;4.37;2.20;;;;;;;23.95;45.52;100137.16;1797640;78;21041;-66
2021/06/08 09:35:01;;;;;;;4.65;1.98;;;;;;;23.98;44.02;100124.11;1797818;78;21638;-68
2021/06/08 09:37:32;;;;;;;4.65;2.40;;;;;;;23.96;43.48;100120.02;1798282;78;21082;-70
2021/06/08 09:39:58;;;;;;;5.35;2.20;;;;;;;23.98;44.44;100121.95;1790655;78;21173;-67
2021/06/08 09:42:29;;;;;;;5.28;2.65;;;;;;;24.05;45.21;100114.13;1766896;78;21069;-67
2021/06/08 09:45:12;;;;;;;5.10;2.20;;;;;;;24.16;45.09;100109.93;1799903;78;21140;-70
2021/06/08 09:47:39;;;;;;;5.15;2.25;;;;;;;24.27;44.13;100111.88;1794554;78;21223;-65
2021/06/08 09:50:30;;;;;;;5.33;2.72;;;;;;;24.37;43.01;100103.86;1790181;78;21074;-67
2021/06/08 09:53:26;;;;;;;4.75;2.37;;;;;;;24.44;42.58;100097.89;1819035;77;21101;-69
2021/06/08 09:56:05;;;;;;;5.90;2.70;;;;;;;24.50;43.81;100101.05;1782211;78;21116;-71
2021/06/08 09:58:33;;;;;;;5.15;2.42;;;;;;;24.60;42.65;100101.39;1786449;78;21089;-70
2021/06/08 10:01:12;;;;;;;4.42;2.42;;;;;;;24.67;42.70;100087.87;1785088;79;21546;-75
2021/06/08 10:03:50;;;;;;;4.97;2.92;;;;;;;24.75;43.46;100092.96;1785880;78;21095;-68
2021/06/08 10:06:25;;;;;;;5.50;2.77;;;;;;;24.83;42.50;100088.63;1742720;79;21975;-71
2021/06/08 10:08:59;;;;;;;4.40;2.42;;;;;;;24.88;42.22;100088.47;1778283;77;21108;-68
2021/06/08 10:11:31;;;;;;;7.03;2.90;;;;;;;24.90;42.84;100087.72;1789116;79;21011;-65
2021/06/08 10:14:19;;;;;;;6.03;2.37;;;;;;;24.89;42.35;100092.81;1816878;77;21081;-71
2021/06/08 10:17:00;;;;;;;4.70;2.15;;;;;;;24.87;42.34;100092.23;1809452;78;21073;-70
2021/06/08 10:19:27;;;;;;;3.80;1.72;;;;;;;24.81;40.19;100089.89;1810939;77;21909;-66
2021/06/08 10:21:54;;;;;;;8.00;2.20;;;;;;;24.78;40.65;100088.98;1775498;78;21090;-68
2021/06/08 10:24:23;;;;;;;5.33;1.90;;;;;;;24.79;40.71;100083.38;1781088;77;21560;-65
2021/06/08 10:29:34;;;;;;;3.62;1.70;;;;;;;24.93;38.48;100061.20;1802616;78;22573;-67
2021/06/08 10:32:01;;;;;;;4.10;1.80;;;;;;;24.89;40.30;100070.76;1767482;79;21047;-65
2021/06/08 10:34:29;;;;;;;4.10;2.15;;;;;;;24.97;39.52;100066.95;1770964;80;21135;-66
2021/06/08 10:36:57;;;;;;;4.53;1.60;;;;;;;25.10;40.08;100057.87;1744646;79;20922;-64
2021/06/08 10:39:29;;;;;;;3.75;1.80;;;;;;;25.23;38.86;100057.70;1766146;80;21550;-65
2021/06/08 10:42:06;;;;;;;4.20;1.80;;;;;;;25.30;40.14;100045.53;1770470;79;21450;-65
2021/06/08 10:44:34;;;;;;;4.80;2.17;;;;;;;25.34;39.71;100042.16;1746725;79;20947;-66
2021/06/08 10:47:08;;;;;;;5.55;2.65;;;;;;;25.34;39.12;100044.85;1745752;80;21853;-65
2021/06/08 10:49:38;;;;;;;6.30;3.25;;;;;;;25.33;41.07;100052.62;1676877;83;21138;-66
2021/06/08 10:52:13;;;;;;;5.65;3.20;;;;;;;25.39;42.42;100053.06;1684268;83;21363;-65
2021/06/08 10:54:48;;;;;;;5.12;3.30;;;;;;;25.41;42.19;100052.84;1683715;83;21103;-66
2021/06/08 10:57:16;;;;;;;6.08;3.02;;;;;;;25.42;41.83;100049.11;1652948;84;26632;-63
2021/06/08 10:59:45;;;;;;;6.20;3.17;;;;;;;25.44;42.36;100042.15;1682744;83;21419;-65
2021/06/08 11:02:15;;;;;;;6.62;3.42;;;;;;;25.51;43.34;100038.83;1651771;84;21525;-66
2021/06/08 11:04:53;;;;;;;5.42;3.05;;;;;;;25.59;42.39;100040.66;1671055;84;21124;-66
2021/06/08 11:07:47;;;;;;;7.95;3.58;;;;;;;25.52;42.69;100040.45;1677548;83;20959;-66
2021/06/08 11:10:31;;;;;;;6.30;3.87;;;;;;;25.34;42.48;100038.12;1685661;84;21410;-66
2021/06/08 11:13:17;;;;;;;5.65;3.35;;;;;;;25.28;43.42;100040.91;1676668;83;21138;-67
2021/06/08 11:15:47;;;;;;;6.33;3.65;;;;;;;25.38;42.30;100039.29;1681619;84;21431;-65
2021/06/08 11:18:38;;;;;;;5.70;2.98;;;;;;;25.46;42.43;100048.93;1680005;83;21076;-64
2021/06/08 11:21:12;;;;;;;5.05;3.27;;;;;;;25.51;42.13;100045.02;1680369;84;21078;-66
2021/06/08 11:23:44;;;;;;;5.90;3.12;;;;;;;25.63;42.94;100045.05;1679806;83;21008;-65
2021/06/08 11:26:15;;;;;;;6.28;3.60;;;;;;;25.73;40.75;100046.66;1678440;84;21897;-66
2021/06/08 11:28:44;;;;;;;6.12;4.60;;;;;;;25.80;43.19;100057.33;1673662;83;21032;-67
2021/06/08 11:31:16;;;;;;;7.40;5.03;;;;;;;25.75;45.28;100047.77;1639500;85;21597;-65
2021/06/08 11:33:46;;;;;;;9.58;4.33;;;;;;;25.59;46.08;100054.66;1661997;84;21048;-66
2021/06/08 11:36:25;;;;;;;7.78;4.55;;;;;;;25.42;46.31;100048.27;1660966;85;21609;-66
2021/06/08 11:38:58;;;;;;;9.60;4.53;;;;;;;25.26;46.74;100041.13;1654421;85;21597;-66
2021/06/08 11:41:25;;;;;;;5.95;4.25;;;;;;;25.26;47.59;100044.33;1709130;82;21075;-65